Time;durP1;ratioP1;P1;durP2;ratioP2;P2;SDS_P1;SDS_P2;PMS_P1;PMS_P2;Temp;Humidity;BMP_temperature;BMP_pressure;BME280_temperature;BME280_humidity;BME280_pressure;Samples;Min_cycle;Max_cycle;Signal;HPM_P1;HPM_P2
2022/07/29 00:01:52;;;;;;;4.32;1.30;;;20.10;99.90;;;;;;5009754;28;20068;-71
2022/07/29 00:04:18;;;;;;;3.47;1.75;;;20.10;99.90;;;;;;4996286;28;20376;-71
2022/07/29 00:06:44;;;;;;;4.30;1.90;;;20.10;99.90;;;;;;5005546;28;20038;-71
2022/07/29 00:09:10;;;;;;;3.72;1.88;;;20.30;99.90;;;;;;5003015;28;20464;-71
2022/07/29 00:11:35;;;;;;;3.40;1.63;;;20.30;99.90;;;;;;5006593;28;20522;-71
2022/07/29 00:14:01;;;;;;;4.20;1.77;;;20.40;99.90;;;;;;5006056;28;20022;-70
2022/07/29 00:16:27;;;;;;;4.00;1.92;;;20.20;99.90;;;;;;5001870;28;20717;-71
2022/07/29 00:18:52;;;;;;;3.85;2.08;;;19.90;99.90;;;;;;5006619;28;20042;-71
2022/07/29 00:21:18;;;;;;;4.07;1.63;;;20.00;99.90;;;;;;5001326;28;20040;-71
2022/07/29 00:23:44;;;;;;;4.00;2.75;;;20.00;99.90;;;;;;4999060;28;20038;-71
2022/07/29 00:26:09;;;;;;;4.18;1.85;;;19.90;99.90;;;;;;5006285;28;20439;-71
2022/07/29 00:28:35;;;;;;;5.40;2.00;;;19.80;99.90;;;;;;4992783;28;20034;-70
2022/07/29 00:31:01;;;;;;;3.55;1.75;;;19.90;99.90;;;;;;4996048;28;20022;-71
2022/07/29 00:33:26;;;;;;;3.60;2.03;;;19.90;99.90;;;;;;4996286;28;20055;-70
2022/07/29 00:35:52;;;;;;;3.95;2.15;;;20.10;99.90;;;;;;4996457;28;20053;-71
2022/07/29 00:38:20;;;;;;;3.80;1.63;;;20.10;99.90;;;;;;5005060;28;20030;-70
2022/07/29 00:40:47;;;;;;;2.65;1.50;;;19.80;99.90;;;;;;4998897;28;20053;-71
2022/07/29 00:43:14;;;;;;;3.70;1.70;;;19.70;99.90;;;;;;5003060;28;20042;-71
2022/07/29 00:45:41;;;;;;;5.32;2.30;;;19.80;99.90;;;;;;4999295;28;20037;-71
2022/07/29 00:48:08;;;;;;;4.72;1.92;;;19.70;99.90;;;;;;5004415;28;20495;-71
2022/07/29 00:50:34;;;;;;;3.95;1.83;;;19.70;99.90;;;;;;4996943;28;20042;-71
2022/07/29 00:53:02;;;;;;;6.30;2.10;;;19.80;99.90;;;;;;5004834;28;20058;-70
2022/07/29 00:55:28;;;;;;;4.20;1.80;;;19.70;99.90;;;;;;5004288;28;20038;-70
2022/07/29 00:57:55;;;;;;;3.72;1.90;;;19.70;99.90;;;;;;4999659;28;20034;-71
2022/07/29 01:00:24;;;;;;;3.65;1.80;;;19.70;99.90;;;;;;5000305;28;20437;-71
2022/07/29 01:02:50;;;;;;;4.55;2.25;;;19.70;99.90;;;;;;4996289;28;20084;-71
2022/07/29 01:05:19;;;;;;;5.25;1.50;;;19.80;99.90;;;;;;5002650;28;20077;-70
2022/07/29 01:07:45;;;;;;;3.95;1.65;;;19.70;99.90;;;;;;4998832;28;20041;-71
2022/07/29 01:10:13;;;;;;;3.33;1.83;;;19.80;99.90;;;;;;5003431;28;20030;-71
2022/07/29 01:12:39;;;;;;;3.83;2.25;;;20.00;99.90;;;;;;4997242;28;20092;-70
2022/07/29 01:15:07;;;;;;;3.70;2.00;;;20.10;99.90;;;;;;5004004;28;20053;-71
2022/07/29 01:17:48;;;;;;;4.82;2.42;;;20.00;99.90;;;;;;4997430;28;20042;-71
2022/07/29 01:20:36;;;;;;;4.18;2.47;;;20.10;99.90;;;;;;5003351;28;20389;-70
2022/07/29 01:23:20;;;;;;;4.93;2.50;;;19.90;99.90;;;;;;5000073;28;20041;-70
2022/07/29 01:25:57;;;;;;;6.55;3.03;;;19.90;99.90;;;;;;4999958;28;20128;-70
2022/07/29 01:28:46;;;;;;;4.63;2.88;;;19.90;99.90;;;;;;4995456;28;20061;-71
2022/07/29 01:31:20;;;;;;;5.47;2.45;;;19.90;99.90;;;;;;4995888;28;20468;-70
2022/07/29 01:33:53;;;;;;;5.95;2.50;;;19.90;99.90;;;;;;5001535;28;20030;-70
2022/07/29 01:36:42;;;;;;;5.80;2.58;;;19.80;99.90;;;;;;4997704;28;20036;-71
2022/07/29 01:39:29;;;;;;;4.80;2.67;;;19.70;99.90;;;;;;5006155;28;20037;-70
2022/07/29 01:42:31;;;;;;;5.65;2.88;;;19.60;99.90;;;;;;5001466;28;20030;-71
2022/07/29 01:44:59;;;;;;;5.03;2.95;;;19.80;99.90;;;;;;4993172;28;20030;-70
2022/07/29 01:47:53;;;;;;;5.43;2.72;;;19.70;99.90;;;;;;4999699;28;20022;-70
2022/07/29 01:50:26;;;;;;;3.72;2.42;;;19.80;99.90;;;;;;5002274;28;20376;-71
2022/07/29 01:52:57;;;;;;;6.10;2.60;;;19.50;99.90;;;;;;4998262;28;20156;-70
2022/07/29 01:55:28;;;;;;;4.13;2.60;;;19.70;99.90;;;;;;4999579;28;20037;-70
2022/07/29 01:57:56;;;;;;;5.45;2.60;;;19.40;99.90;;;;;;4999272;28;20066;-71
2022/07/29 02:00:23;;;;;;;6.30;3.55;;;19.30;99.90;;;;;;5001465;28;20026;-70
2022/07/29 02:02:50;;;;;;;4.45;2.50;;;19.20;99.90;;;;;;5000391;28;20042;-71
2022/07/29 02:05:19;;;;;;;5.03;2.50;;;19.00;99.90;;;;;;5000199;28;20081;-71
2022/07/29 02:07:47;;;;;;;5.97;2.70;;;19.00;99.90;;;;;;4997972;28;20030;-71
2022/07/29 02:10:14;;;;;;;5.80;2.42;;;19.00;99.90;;;;;;5001195;28;20504;-71
2022/07/29 02:12:42;;;;;;;4.30;2.38;;;18.90;99.90;;;;;;4997554;28;20396;-71
2022/07/29 02:15:10;;;;;;;4.80;2.67;;;18.90;99.90;;;;;;5001575;28;20113;-70
2022/07/29 02:17:43;;;;;;;5.75;2.33;;;19.10;99.90;;;;;;4996508;28;20440;-71
2022/07/29 02:20:09;;;;;;;6.45;2.70;;;19.10;99.90;;;;;;4998299;28;20030;-70
2022/07/29 02:22:38;;;;;;;3.92;2.33;;;19.10;99.90;;;;;;5005225;28;20046;-71
2022/07/29 02:25:05;;;;;;;4.30;2.60;;;19.20;99.90;;;;;;4993269;28;20029;-71
2022/07/29 02:27:33;;;;;;;5.68;2.78;;;19.30;99.90;;;;;;4995118;28;20031;-71
2022/07/29 02:30:01;;;;;;;3.80;2.53;;;19.00;99.90;;;;;;5003313;28;20091;-71
2022/07/29 02:32:29;;;;;;;4.93;2.42;;;19.10;99.90;;;;;;5004664;28;20041;-71
2022/07/29 02:34:56;;;;;;;4.43;1.92;;;19.10;99.90;;;;;;4986193;28;20510;-70
2022/07/29 02:37:23;;;;;;;5.78;2.70;;;19.20;99.90;;;;;;4993197;28;20365;-71
2022/07/29 02:39:51;;;;;;;3.45;2.03;;;19.00;99.90;;;;;;5002241;28;20625;-71
2022/07/29 02:42:18;;;;;;;4.43;2.20;;;19.00;99.90;;;;;;5003308;28;20070;-70
2022/07/29 02:44:44;;;;;;;3.78;1.88;;;18.90;99.90;;;;;;4994941;28;20041;-71
2022/07/29 02:47:24;;;;;;;3.78;2.00;;;19.00;99.90;;;;;;4990667;28;20656;-71
2022/07/29 02:49:59;;;;;;;4.28;2.35;;;18.80;99.90;;;;;;5003086;28;20117;-71
2022/07/29 02:52:37;;;;;;;4.72;2.45;;;18.80;99.90;;;;;;5004771;28;20053;-71
2022/07/29 02:55:32;;;;;;;3.15;1.85;;;19.00;99.90;;;;;;4995243;28;20045;-71
2022/07/29 02:58:20;;;;;;;4.68;2.45;;;18.80;99.90;;;;;;5003685;28;20041;-70
2022/07/29 03:00:48;;;;;;;4.75;2.15;;;19.00;99.90;;;;;;4993641;28;20392;-70
2022/07/29 03:03:17;;;;;;;3.58;1.90;;;18.80;99.90;;;;;;4996173;28;20093;-69
2022/07/29 03:05:42;;;;;;;3.53;2.10;;;18.80;99.90;;;;;;4994655;28;20038;-69
2022/07/29 03:08:10;;;;;;;4.70;2.17;;;19.00;99.90;;;;;;4990619;28;20037;-69
2022/07/29 03:10:39;;;;;;;4.47;2.00;;;19.00;99.90;;;;;;4991880;28;20119;-69
2022/07/29 03:13:06;;;;;;;4.03;1.88;;;18.70;99.90;;;;;;4996498;28;20077;-69
2022/07/29 03:15:32;;;;;;;4.00;2.00;;;18.80;99.90;;;;;;4990269;28;20026;-69
2022/07/29 03:17:59;;;;;;;3.55;1.73;;;18.70;99.90;;;;;;4995224;28;20034;-69
2022/07/29 03:20:25;;;;;;;4.05;1.88;;;18.70;99.90;;;;;;4998137;28;20045;-69
2022/07/29 03:22:51;;;;;;;3.65;2.22;;;18.70;99.90;;;;;;4992514;28;20054;-69
2022/07/29 03:25:19;;;;;;;5.15;2.10;;;18.40;99.90;;;;;;4999519;28;20037;-70
2022/07/29 03:27:46;;;;;;;4.40;2.05;;;18.40;99.90;;;;;;4991896;28;20031;-70
2022/07/29 03:30:13;;;;;;;5.78;2.10;;;18.40;99.90;;;;;;4992385;28;20104;-70
2022/07/29 03:32:40;;;;;;;4.15;2.13;;;18.50;99.90;;;;;;5000169;28;20062;-70
2022/07/29 03:35:07;;;;;;;3.35;1.60;;;18.50;99.90;;;;;;4999698;28;20041;-69
2022/07/29 03:37:33;;;;;;;7.28;1.92;;;18.60;99.90;;;;;;5002881;28;20480;-69
2022/07/29 03:40:01;;;;;;;3.63;2.10;;;18.70;99.90;;;;;;4999424;28;20033;-70
2022/07/29 03:42:31;;;;;;;3.85;2.35;;;18.60;99.90;;;;;;5001305;28;20077;-69
2022/07/29 03:45:00;;;;;;;4.85;1.58;;;18.50;99.90;;;;;;4997722;28;20038;-70
2022/07/29 03:47:28;;;;;;;5.22;2.05;;;18.60;99.90;;;;;;5003377;28;20071;-69
2022/07/29 03:50:01;;;;;;;5.45;1.88;;;18.80;99.90;;;;;;4997540;28;20345;-69
2022/07/29 03:52:27;;;;;;;3.72;2.17;;;18.80;99.90;;;;;;4995955;28;20047;-70
2022/07/29 03:54:53;;;;;;;3.25;1.95;;;18.70;99.90;;;;;;4995961;28;20057;-69
2022/07/29 03:57:26;;;;;;;4.20;2.10;;;18.90;99.90;;;;;;5000788;28;20081;-69
2022/07/29 03:59:53;;;;;;;4.35;2.00;;;18.80;99.90;;;;;;4991484;28;20034;-69
2022/07/29 04:02:19;;;;;;;3.83;2.20;;;18.80;99.90;;;;;;4989544;28;20046;-69
2022/07/29 04:04:45;;;;;;;4.72;1.92;;;18.70;99.90;;;;;;4992066;28;20043;-69
2022/07/29 04:07:15;;;;;;;3.47;1.70;;;18.80;99.90;;;;;;4992631;28;20456;-71
2022/07/29 04:09:41;;;;;;;3.78;1.80;;;18.90;99.90;;;;;;4999913;28;20027;-69
2022/07/29 04:12:07;;;;;;;3.15;1.90;;;18.80;99.90;;;;;;4993812;28;20105;-69
2022/07/29 04:14:34;;;;;;;4.38;2.10;;;18.90;99.90;;;;;;4991521;28;20044;-69
2022/07/29 04:17:04;;;;;;;4.70;1.65;;;18.70;99.90;;;;;;4994844;28;20045;-69
2022/07/29 04:19:30;;;;;;;3.65;1.60;;;18.70;99.90;;;;;;4991295;28;20117;-69
2022/07/29 04:21:57;;;;;;;4.35;1.67;;;18.60;99.90;;;;;;4996360;28;20073;-70
2022/07/29 04:24:23;;;;;;;3.83;1.77;;;18.70;99.90;;;;;;4999906;28;20041;-70
2022/07/29 04:26:48;;;;;;;3.45;1.63;;;18.60;99.90;;;;;;4995390;28;20557;-69
2022/07/29 04:29:14;;;;;;;4.20;1.83;;;18.70;99.90;;;;;;4992980;28;20054;-69
2022/07/29 04:31:43;;;;;;;6.10;1.70;;;18.70;99.90;;;;;;4986133;28;20081;-69
2022/07/29 04:34:10;;;;;;;3.08;1.52;;;18.60;99.90;;;;;;4988462;28;20046;-70
2022/07/29 04:36:35;;;;;;;4.97;2.40;;;18.70;99.90;;;;;;4991664;28;20040;-69
2022/07/29 04:39:01;;;;;;;3.13;1.65;;;18.80;99.90;;;;;;4994146;28;20480;-69
2022/07/29 04:41:28;;;;;;;3.67;1.98;;;18.90;99.90;;;;;;4985915;28;20107;-69
2022/07/29 04:43:53;;;;;;;5.13;2.22;;;19.00;99.90;;;;;;4993904;28;20125;-69
2022/07/29 04:46:19;;;;;;;4.85;1.88;;;18.80;99.90;;;;;;4991877;28;20105;-69
2022/07/29 04:48:48;;;;;;;4.30;1.70;;;18.80;99.90;;;;;;4994786;28;20026;-70
2022/07/29 04:51:17;;;;;;;2.67;1.55;;;18.80;99.90;;;;;;4998269;28;20399;-69
2022/07/29 04:53:42;;;;;;;3.58;2.10;;;18.80;99.90;;;;;;4992582;28;20045;-70
2022/07/29 04:56:08;;;;;;;3.47;1.77;;;18.80;99.90;;;;;;4998236;28;20389;-69
2022/07/29 04:58:37;;;;;;;4.93;2.00;;;18.80;99.90;;;;;;4995185;28;20416;-69
2022/07/29 05:01:03;;;;;;;4.30;1.40;;;18.70;99.90;;;;;;4993080;28;20033;-70
2022/07/29 05:03:29;;;;;;;4.90;2.00;;;18.90;99.90;;;;;;5003321;28;20045;-70
2022/07/29 05:05:55;;;;;;;3.35;1.45;;;18.90;99.90;;;;;;4992036;28;20391;-69
2022/07/29 05:08:20;;;;;;;3.17;1.60;;;19.00;99.90;;;;;;4996929;28;20034;-69
2022/07/29 05:10:46;;;;;;;5.05;1.65;;;19.00;99.90;;;;;;4999998;28;20040;-69
2022/07/29 05:13:12;;;;;;;3.92;2.00;;;18.90;99.90;;;;;;4992645;28;20037;-70
2022/07/29 05:15:38;;;;;;;3.67;1.95;;;18.80;99.90;;;;;;4990569;28;20468;-70
2022/07/29 05:18:04;;;;;;;3.97;1.90;;;18.90;99.90;;;;;;4999151;28;20026;-70
2022/07/29 05:20:30;;;;;;;6.47;2.10;;;19.00;99.90;;;;;;4996980;28;20042;-70
2022/07/29 05:22:58;;;;;;;4.55;1.63;;;19.00;99.90;;;;;;4989408;28;20042;-69
2022/07/29 05:25:25;;;;;;;3.65;1.77;;;19.00;99.90;;;;;;4995154;28;20026;-70
2022/07/29 05:27:51;;;;;;;5.82;1.90;;;18.90;99.90;;;;;;4988733;28;20064;-69
2022/07/29 05:30:17;;;;;;;5.03;1.92;;;18.90;99.90;;;;;;4992884;28;20033;-69
2022/07/29 05:32:42;;;;;;;4.90;2.03;;;18.90;99.90;;;;;;4998710;28;20033;-70
2022/07/29 05:35:08;;;;;;;4.30;1.70;;;19.00;99.90;;;;;;4993574;28;20494;-70
2022/07/29 05:37:34;;;;;;;4.45;2.22;;;19.00;99.90;;;;;;4990807;28;20035;-70
2022/07/29 05:40:00;;;;;;;4.18;2.08;;;18.80;99.90;;;;;;4993502;28;20044;-69
2022/07/29 05:42:26;;;;;;;3.80;1.63;;;18.80;99.90;;;;;;4992218;28;20038;-69
2022/07/29 05:44:53;;;;;;;5.65;2.05;;;18.70;99.90;;;;;;4993818;28;20395;-70
2022/07/29 05:47:19;;;;;;;5.15;2.13;;;18.80;99.90;;;;;;4994401;28;20030;-70
2022/07/29 05:49:45;;;;;;;3.50;1.90;;;18.90;99.90;;;;;;4995811;28;20053;-70
2022/07/29 05:52:12;;;;;;;5.18;1.77;;;19.10;99.90;;;;;;4990072;28;20054;-70
2022/07/29 05:54:39;;;;;;;3.15;1.80;;;19.20;99.90;;;;;;4991159;28;20026;-70
2022/07/29 05:57:05;;;;;;;3.42;1.65;;;19.20;99.90;;;;;;4994463;28;20488;-69
2022/07/29 05:59:34;;;;;;;3.28;1.65;;;19.20;99.90;;;;;;4996169;28;20046;-70
2022/07/29 06:02:00;;;;;;;3.47;1.65;;;19.30;99.90;;;;;;4993120;28;20061;-69
2022/07/29 06:04:26;;;;;;;3.95;1.80;;;19.30;99.90;;;;;;4988351;28;20103;-69
2022/07/29 06:06:51;;;;;;;3.83;1.90;;;19.30;99.90;;;;;;4989600;28;20037;-70
2022/07/29 06:09:17;;;;;;;3.58;1.88;;;19.50;99.90;;;;;;4988547;28;20408;-70
2022/07/29 06:11:43;;;;;;;3.08;1.63;;;19.40;99.90;;;;;;4985985;28;20076;-70
2022/07/29 06:14:09;;;;;;;4.20;1.95;;;19.50;99.90;;;;;;4987716;28;20483;-70
2022/07/29 06:16:34;;;;;;;4.03;1.50;;;19.60;99.90;;;;;;4984786;28;20030;-70
2022/07/29 06:19:00;;;;;;;3.22;1.80;;;19.60;99.90;;;;;;4987837;28;20084;-69
2022/07/29 06:21:26;;;;;;;3.50;1.88;;;19.70;99.90;;;;;;5020192;28;20030;-70
2022/07/29 06:23:51;;;;;;;3.20;1.60;;;19.90;99.90;;;;;;4987750;28;20069;-71
2022/07/29 06:26:17;;;;;;;3.33;1.50;;;19.90;99.90;;;;;;4989240;28;20095;-69
2022/07/29 06:28:43;;;;;;;4.70;1.77;;;19.90;99.90;;;;;;4988520;28;20634;-70
2022/07/29 06:31:08;;;;;;;5.28;1.65;;;20.10;99.90;;;;;;4989106;28;20113;-70
2022/07/29 06:33:34;;;;;;;5.85;1.75;;;20.30;99.90;;;;;;4993869;28;20039;-71
2022/07/29 06:36:00;;;;;;;5.43;1.92;;;20.10;99.90;;;;;;4989696;28;20045;-72
2022/07/29 06:38:25;;;;;;;3.60;2.00;;;20.10;99.90;;;;;;4995008;28;20030;-69
2022/07/29 06:41:00;;;;;;;3.15;1.30;;;20.10;99.90;;;;;;4989825;28;20034;-70
2022/07/29 06:43:31;;;;;;;3.30;2.00;;;20.30;99.90;;;;;;4981158;28;20034;-70
2022/07/29 06:46:03;;;;;;;3.60;1.60;;;20.50;99.90;;;;;;4988261;28;20125;-70
2022/07/29 06:48:29;;;;;;;2.78;1.52;;;20.50;99.90;;;;;;4982595;28;20029;-69
2022/07/29 06:50:54;;;;;;;3.25;1.63;;;20.50;99.90;;;;;;4988222;28;20022;-71
2022/07/29 06:53:20;;;;;;;3.15;1.60;;;20.70;99.90;;;;;;4995358;28;20030;-70
2022/07/29 06:55:46;;;;;;;3.08;1.40;;;20.70;99.90;;;;;;4993950;28;20466;-70
2022/07/29 06:58:13;;;;;;;5.20;1.95;;;20.80;99.90;;;;;;4996157;28;20500;-70
2022/07/29 07:00:39;;;;;;;5.13;1.75;;;21.10;99.90;;;;;;4997455;28;20031;-71
2022/07/29 07:03:05;;;;;;;3.20;1.88;;;21.30;99.90;;;;;;4997250;28;20041;-70
2022/07/29 07:05:30;;;;;;;4.38;1.85;;;21.50;99.90;;;;;;4987696;28;20042;-71
2022/07/29 07:07:56;;;;;;;2.35;1.42;;;21.80;99.90;;;;;;4988512;28;20069;-71
2022/07/29 07:10:22;;;;;;;3.17;1.60;;;22.10;99.90;;;;;;4992142;28;20045;-71
2022/07/29 07:12:47;;;;;;;2.95;1.70;;;22.30;99.90;;;;;;4977175;28;20027;-71
2022/07/29 07:15:13;;;;;;;4.82;2.05;;;22.50;99.90;;;;;;4978926;28;20034;-71
2022/07/29 07:17:38;;;;;;;3.60;1.83;;;22.50;99.90;;;;;;4974785;28;20064;-69
2022/07/29 07:20:05;;;;;;;3.28;1.50;;;22.80;99.90;;;;;;4985962;28;20041;-71
2022/07/29 07:22:31;;;;;;;3.17;1.70;;;23.00;99.90;;;;;;4985901;28;20042;-70
2022/07/29 07:24:57;;;;;;;3.03;1.50;;;22.80;99.90;;;;;;4989572;28;20636;-70
2022/07/29 07:27:22;;;;;;;2.85;1.55;;;22.80;99.90;;;;;;4997211;28;20038;-71
2022/07/29 07:29:48;;;;;;;3.35;1.45;;;22.50;99.90;;;;;;4978760;28;20030;-70
2022/07/29 07:32:16;;;;;;;4.15;1.80;;;22.50;99.90;;;;;;4973953;28;20144;-69
2022/07/29 07:34:42;;;;;;;2.92;1.55;;;24.10;99.90;;;;;;4967705;28;20122;-70
2022/07/29 07:37:09;;;;;;;4.07;1.70;;;26.50;97.50;;;;;;4972785;28;20558;-70
2022/07/29 07:39:35;;;;;;;2.75;1.48;;;28.00;94.90;;;;;;5000140;28;20040;-70
2022/07/29 07:42:00;;;;;;;2.65;1.40;;;28.50;92.40;;;;;;4997612;28;20109;-71
2022/07/29 07:44:26;;;;;;;5.18;1.77;;;28.20;92.80;;;;;;5000405;28;20037;-70
2022/07/29 07:46:52;;;;;;;3.58;1.52;;;27.10;93.60;;;;;;5005612;28;20037;-70
2022/07/29 07:49:18;;;;;;;4.07;1.77;;;25.40;95.60;;;;;;4990795;28;20045;-70
2022/07/29 07:51:43;;;;;;;3.03;1.42;;;24.50;96.90;;;;;;4998783;28;20052;-70
2022/07/29 07:54:09;;;;;;;2.45;1.27;;;26.90;94.50;;;;;;4988926;28;20030;-71
2022/07/29 07:56:35;;;;;;;5.22;1.73;;;28.60;93.00;;;;;;4989389;28;20477;-70
2022/07/29 07:59:01;;;;;;;3.65;1.92;;;28.60;91.80;;;;;;4999601;28;20034;-71
2022/07/29 08:01:26;;;;;;;5.07;1.13;;;29.00;92.70;;;;;;4989846;28;20349;-70
2022/07/29 08:03:52;;;;;;;3.28;1.45;;;27.80;92.50;;;;;;4991608;28;20042;-71
2022/07/29 08:06:18;;;;;;;3.28;1.75;;;26.30;92.60;;;;;;5002828;28;20029;-70
2022/07/29 08:08:43;;;;;;;3.40;1.50;;;25.20;95.40;;;;;;5003863;28;20054;-70
2022/07/29 08:11:09;;;;;;;2.35;1.27;;;24.50;95.70;;;;;;4998564;28;20105;-70
2022/07/29 08:13:36;;;;;;;2.17;1.33;;;24.70;97.00;;;;;;4996487;28;20048;-71
2022/07/29 08:16:02;;;;;;;3.83;1.88;;;26.80;94.50;;;;;;4993131;28;20038;-71
2022/07/29 08:18:30;;;;;;;3.70;1.50;;;27.70;93.60;;;;;;4989192;28;20068;-70
2022/07/29 08:20:56;;;;;;;3.22;1.50;;;27.60;92.90;;;;;;4994952;28;20034;-70
2022/07/29 08:23:22;;;;;;;3.08;1.50;;;28.20;92.40;;;;;;4998130;28;20096;-70
2022/07/29 08:25:49;;;;;;;3.67;1.63;;;27.60;93.20;;;;;;4980580;28;20034;-69
2022/07/29 08:28:14;;;;;;;2.55;1.50;;;26.80;93.70;;;;;;4990710;28;20077;-69
2022/07/29 08:30:40;;;;;;;2.47;1.52;;;26.40;94.20;;;;;;4995434;28;20038;-70
2022/07/29 08:33:05;;;;;;;2.65;1.27;;;26.40;94.10;;;;;;4983842;28;20089;-70
2022/07/29 08:35:31;;;;;;;2.78;1.10;;;25.90;93.30;;;;;;4987804;28;20049;-70
2022/07/29 08:37:58;;;;;;;2.25;1.23;;;25.50;94.30;;;;;;4995022;28;20040;-70
2022/07/29 08:40:24;;;;;;;4.45;1.33;;;24.80;94.30;;;;;;4991168;28;20076;-70
2022/07/29 08:42:50;;;;;;;2.75;1.30;;;24.70;94.70;;;;;;4983916;28;20042;-70
2022/07/29 08:45:16;;;;;;;3.53;1.50;;;24.90;94.50;;;;;;4998875;28;20044;-70
2022/07/29 08:47:44;;;;;;;3.22;1.40;;;24.50;94.50;;;;;;4991591;28;20030;-70
2022/07/29 08:50:11;;;;;;;3.53;1.60;;;25.00;94.80;;;;;;4995868;28;20030;-70
2022/07/29 08:52:40;;;;;;;2.60;1.23;;;24.60;96.60;;;;;;5005370;28;20077;-69
2022/07/29 08:55:08;;;;;;;3.08;1.58;;;24.60;95.80;;;;;;4992131;28;20480;-70
2022/07/29 08:57:35;;;;;;;3.38;1.30;;;25.00;95.50;;;;;;4990273;28;20076;-70
2022/07/29 09:00:03;;;;;;;2.38;1.30;;;25.10;95.40;;;;;;4990554;28;20026;-69
2022/07/29 09:02:36;;;;;;;2.53;1.35;;;25.50;95.60;;;;;;4988495;28;21069;-70
2022/07/29 09:05:02;;;;;;;2.58;1.30;;;25.90;94.30;;;;;;4984141;28;20022;-70
2022/07/29 09:07:28;;;;;;;2.47;1.33;;;25.50;93.50;;;;;;4981204;28;20125;-71
2022/07/29 09:09:54;;;;;;;3.55;1.65;;;25.30;93.70;;;;;;4986218;28;20121;-71
2022/07/29 09:12:22;;;;;;;3.08;1.60;;;25.70;93.90;;;;;;4988387;28;20085;-71
2022/07/29 09:14:47;;;;;;;2.72;1.45;;;25.40;94.30;;;;;;4988534;28;20033;-71
2022/07/29 09:17:16;;;;;;;2.38;1.17;;;25.40;96.00;;;;;;4987787;28;20113;-71
2022/07/29 09:19:42;;;;;;;2.45;1.48;;;25.50;94.40;;;;;;4983499;28;20027;-71
2022/07/29 09:22:09;;;;;;;2.58;1.38;;;25.60;94.60;;;;;;4988464;28;20431;-70
2022/07/29 09:24:47;;;;;;;2.65;1.45;;;25.40;93.70;;;;;;4994010;28;20054;-71
2022/07/29 09:27:25;;;;;;;3.50;1.60;;;25.50;94.00;;;;;;4986817;28;20113;-71
2022/07/29 09:29:59;;;;;;;2.45;1.50;;;25.70;94.40;;;;;;4985472;28;20102;-71
2022/07/29 09:32:26;;;;;;;4.47;1.63;;;25.70;94.00;;;;;;4984409;28;20042;-71
2022/07/29 09:35:15;;;;;;;2.78;1.50;;;25.50;94.90;;;;;;4976685;28;20035;-71
2022/07/29 09:37:41;;;;;;;3.42;1.77;;;25.80;94.90;;;;;;4990458;28;20042;-72
2022/07/29 09:40:17;;;;;;;4.25;1.52;;;26.30;95.40;;;;;;4987793;28;20030;-72
2022/07/29 09:42:43;;;;;;;3.10;1.88;;;26.10;94.90;;;;;;4989521;28;20043;-72
2022/07/29 09:45:10;;;;;;;3.67;1.75;;;25.90;95.20;;;;;;4996181;28;20072;-72
2022/07/29 09:47:48;;;;;;;5.18;1.92;;;26.50;95.90;;;;;;4993083;28;20038;-72
2022/07/29 09:50:15;;;;;;;3.22;1.92;;;26.90;95.00;;;;;;4990314;28;20076;-72
2022/07/29 09:52:50;;;;;;;4.43;2.00;;;26.40;94.50;;;;;;4991801;28;20112;-72
2022/07/29 09:55:16;;;;;;;3.55;1.50;;;26.70;95.50;;;;;;4990684;28;20030;-72
2022/07/29 09:57:43;;;;;;;3.53;1.67;;;26.70;93.80;;;;;;4987908;28;20042;-72
2022/07/29 10:00:18;;;;;;;3.55;1.52;;;26.70;93.30;;;;;;4986755;28;20061;-72
2022/07/29 10:02:45;;;;;;;2.53;1.35;;;26.70;93.30;;;;;;4987347;28;20511;-73
2022/07/29 10:05:19;;;;;;;3.00;1.70;;;26.70;94.00;;;;;;4987747;28;20034;-72
2022/07/29 10:07:58;;;;;;;;;;;27.10;93.30;;;;;;4988087;28;20074;-73
2022/07/29 10:10:24;;;;;;;3.20;1.90;;;27.30;93.90;;;;;;4985531;28;19979;-72
2022/07/29 10:12:57;;;;;;;3.17;1.20;;;27.00;93.40;;;;;;4991726;28;20484;-72
2022/07/29 10:15:29;;;;;;;3.17;1.40;;;27.20;93.40;;;;;;4985404;28;20027;-73
2022/07/29 10:17:56;;;;;;;2.65;1.38;;;27.30;92.40;;;;;;4990439;28;20026;-72
2022/07/29 10:20:23;;;;;;;3.85;1.70;;;27.10;92.60;;;;;;5002265;28;20502;-72
2022/07/29 10:22:50;;;;;;;2.70;1.40;;;27.30;92.50;;;;;;4996930;28;20069;-72
2022/07/29 10:25:17;;;;;;;5.40;1.48;;;27.50;92.50;;;;;;4997679;28;20034;-71
2022/07/29 10:27:47;;;;;;;2.88;1.52;;;27.60;92.40;;;;;;4998399;28;20033;-72
2022/07/29 10:30:15;;;;;;;3.35;1.33;;;28.00;92.50;;;;;;4988577;28;20030;-71
2022/07/29 10:33:01;;;;;;;2.95;1.70;;;28.00;93.40;;;;;;4989575;28;20092;-71
2022/07/29 10:35:49;;;;;;;3.58;1.70;;;27.80;93.90;;;;;;4992986;28;20035;-71
2022/07/29 10:38:29;;;;;;;3.72;1.83;;;27.60;92.10;;;;;;4996880;28;20029;-71
2022/07/29 10:41:28;;;;;;;2.85;1.65;;;27.90;92.30;;;;;;4995781;28;20022;-71
2022/07/29 10:44:01;;;;;;;2.28;1.10;;;28.10;91.70;;;;;;5000032;28;20053;-71
2022/07/29 10:46:27;;;;;;;;;;;28.30;92.10;;;;;;4990958;28;20026;-71
2022/07/29 10:49:11;;;;;;;2.65;1.20;;;28.40;91.70;;;;;;4992850;28;19917;-71
2022/07/29 10:51:57;;;;;;;2.20;1.20;;;28.20;91.70;;;;;;4997178;28;20056;-71
2022/07/29 10:54:35;;;;;;;3.53;1.70;;;28.40;92.10;;;;;;4988969;28;20026;-71
2022/07/29 10:57:31;;;;;;;2.38;1.20;;;28.00;91.00;;;;;;4991682;28;20448;-71
2022/07/29 11:00:13;;;;;;;2.17;1.13;;;28.40;90.30;;;;;;4980932;28;20042;-71
2022/07/29 11:02:44;;;;;;;4.75;1.48;;;28.70;92.00;;;;;;4994341;28;20042;-72
2022/07/29 11:05:11;;;;;;;2.10;1.10;;;28.50;91.30;;;;;;4986473;28;20023;-72
2022/07/29 11:07:39;;;;;;;3.03;1.58;;;28.70;90.50;;;;;;4991699;28;20030;-72
2022/07/29 11:10:15;;;;;;;2.33;1.13;;;28.50;91.00;;;;;;5003445;28;20038;-73
2022/07/29 11:12:43;;;;;;;4.22;1.20;;;28.70;90.40;;;;;;4993328;28;20022;-76
2022/07/29 11:15:20;;;;;;;4.38;1.65;;;28.60;90.90;;;;;;4990879;28;20074;-72
2022/07/29 11:18:07;;;;;;;3.70;1.25;;;28.50;91.60;;;;;;4977156;28;20069;-72
2022/07/29 11:20:47;;;;;;;2.67;1.23;;;28.20;91.30;;;;;;4984540;28;20841;-72
2022/07/29 11:23:35;;;;;;;5.65;1.38;;;28.00;91.80;;;;;;4990842;28;20085;-72
2022/07/29 11:26:13;;;;;;;2.28;1.25;;;27.80;92.10;;;;;;4989105;28;20053;-71
2022/07/29 11:28:50;;;;;;;2.08;1.23;;;27.70;92.00;;;;;;5000845;28;20049;-71
2022/07/29 11:31:39;;;;;;;2.72;1.42;;;27.70;92.20;;;;;;4987435;28;20092;-72
2022/07/29 11:34:23;;;;;;;2.60;1.48;;;27.80;91.60;;;;;;4985780;28;20022;-73
2022/07/29 11:37:11;;;;;;;2.35;1.25;;;27.80;92.60;;;;;;4988169;28;20022;-73
2022/07/29 11:39:37;;;;;;;3.13;1.40;;;27.70;92.10;;;;;;4988600;28;20097;-74
2022/07/29 11:42:24;;;;;;;5.93;1.75;;;27.70;92.30;;;;;;5021456;28;20464;-74
2022/07/29 11:45:12;;;;;;;2.78;1.58;;;27.80;92.10;;;;;;4985339;28;20038;-73
2022/07/29 11:47:46;;;;;;;2.65;1.33;;;27.80;91.80;;;;;;4973591;28;20050;-73
2022/07/29 11:50:17;;;;;;;3.05;1.55;;;27.70;93.00;;;;;;4992227;28;20029;-72
2022/07/29 11:52:47;;;;;;;2.83;1.50;;;27.60;92.10;;;;;;4971426;28;20054;-72
2022/07/29 11:55:17;;;;;;;3.17;1.73;;;27.60;92.60;;;;;;4986766;28;20048;-74
2022/07/29 11:57:52;;;;;;;2.65;1.20;;;27.60;92.50;;;;;;4990306;28;20035;-72
2022/07/29 12:00:30;;;;;;;5.05;1.80;;;27.70;92.60;;;;;;4988978;28;20034;-73
2022/07/29 12:02:57;;;;;;;4.28;1.95;;;27.70;92.90;;;;;;4990370;28;20041;-72
2022/07/29 12:05:39;;;;;;;6.35;1.55;;;27.70;91.40;;;;;;4996585;28;20683;-72
2022/07/29 12:08:12;;;;;;;3.00;1.40;;;27.60;90.90;;;;;;5006541;28;20068;-72
2022/07/29 12:10:40;;;;;;;3.35;1.38;;;27.60;92.20;;;;;;4990932;28;20085;-72
2022/07/29 12:13:06;;;;;;;4.10;1.52;;;27.50;93.00;;;;;;4989459;28;20022;-72
2022/07/29 12:15:32;;;;;;;2.22;1.40;;;27.60;92.60;;;;;;4989833;28;20655;-73
2022/07/29 12:17:57;;;;;;;1.98;1.10;;;27.70;94.40;;;;;;4989036;28;20113;-73
2022/07/29 12:20:28;;;;;;;3.20;1.92;;;27.60;93.40;;;;;;4990501;28;20030;-74
2022/07/29 12:22:55;;;;;;;3.38;1.67;;;27.50;96.10;;;;;;4989038;28;20073;-72
2022/07/29 12:25:23;;;;;;;3.38;1.65;;;27.40;94.70;;;;;;4989660;28;20038;-72
2022/07/29 12:28:04;;;;;;;3.88;1.40;;;27.30;93.90;;;;;;4987948;28;20043;-72
2022/07/29 12:30:45;;;;;;;4.10;1.40;;;27.20;93.30;;;;;;4983771;28;20546;-72
2022/07/29 12:33:12;;;;;;;5.88;1.50;;;27.00;95.00;;;;;;4970966;28;20038;-73
2022/07/29 12:35:38;;;;;;;2.95;1.15;;;26.90;95.50;;;;;;4971446;28;20042;-73
2022/07/29 12:38:05;;;;;;;3.15;2.03;;;26.90;95.40;;;;;;4971492;28;20035;-73
2022/07/29 12:40:30;;;;;;;2.35;1.40;;;26.70;97.20;;;;;;4971393;28;20019;-73
2022/07/29 12:43:10;;;;;;;2.15;1.38;;;26.70;97.20;;;;;;4970928;28;20501;-73
2022/07/29 12:45:42;;;;;;;3.72;2.53;;;26.70;97.00;;;;;;4971413;28;20853;-73
2022/07/29 12:48:08;;;;;;;3.15;1.83;;;26.90;96.80;;;;;;4971059;28;20045;-73
2022/07/29 12:50:35;;;;;;;3.30;1.73;;;27.00;94.80;;;;;;4970848;28;20090;-73
2022/07/29 12:53:13;;;;;;;3.85;1.88;;;27.10;94.70;;;;;;4970604;28;20513;-73
2022/07/29 12:55:48;;;;;;;3.22;1.70;;;27.10;95.50;;;;;;4970623;28;20030;-73
2022/07/29 12:58:29;;;;;;;3.55;2.03;;;27.10;96.20;;;;;;4970883;28;20042;-73
2022/07/29 13:01:16;;;;;;;4.30;1.90;;;27.10;96.10;;;;;;4970482;28;20027;-73